createdAt,value
2019-02-15T00:02:03.445Z,6.30
2019-02-15T00:04:34.966Z,6.30
2019-02-15T00:07:05.971Z,6.20
2019-02-15T00:09:37.124Z,6.20
2019-02-15T00:12:08.199Z,6.10
2019-02-15T00:14:49.591Z,6.10
2019-02-15T00:17:38.636Z,6.10
2019-02-15T00:20:15.095Z,6.10
2019-02-15T00:22:48.637Z,6.10
2019-02-15T00:25:19.690Z,6.00
2019-02-15T00:27:50.655Z,6.10
2019-02-15T00:30:21.695Z,6.00
2019-02-15T00:32:52.612Z,6.00
2019-02-15T00:35:23.779Z,6.00
2019-02-15T00:37:54.914Z,6.00
2019-02-15T00:40:25.963Z,6.00
2019-02-15T00:42:56.986Z,6.00
2019-02-15T00:45:30.691Z,5.90
2019-02-15T00:48:12.056Z,5.90
2019-02-15T00:51:17.298Z,5.90
2019-02-15T00:54:10.480Z,5.80
2019-02-15T00:57:07.530Z,5.90
2019-02-15T00:59:49.861Z,5.80
2019-02-15T01:02:29.405Z,5.80
2019-02-15T01:05:31.583Z,5.80
2019-02-15T01:08:21.893Z,5.80
2019-02-15T01:11:14.497Z,5.80
2019-02-15T01:13:45.649Z,5.80
2019-02-15T01:16:17.266Z,5.80
2019-02-15T01:18:48.666Z,5.80
2019-02-15T01:21:19.812Z,5.80
2019-02-15T01:23:50.914Z,5.80
2019-02-15T01:26:39.864Z,5.70
2019-02-15T01:29:28.555Z,5.70
2019-02-15T01:32:18.328Z,5.60
2019-02-15T01:35:06.669Z,5.60
2019-02-15T01:37:48.469Z,5.50
2019-02-15T01:40:37.303Z,5.40
2019-02-15T01:43:28.947Z,5.40
2019-02-15T01:46:13.158Z,5.40
2019-02-15T01:48:47.189Z,5.40
2019-02-15T01:51:18.242Z,5.30
2019-02-15T01:53:49.226Z,5.30
2019-02-15T01:56:20.293Z,5.30
2019-02-15T01:58:51.199Z,5.30
2019-02-15T02:01:25.010Z,5.30
2019-02-15T02:03:56.092Z,5.20
2019-02-15T02:06:29.386Z,5.20
2019-02-15T02:09:02.940Z,5.20
2019-02-15T02:11:35.721Z,5.20
2019-02-15T02:14:07.200Z,5.10
2019-02-15T02:16:38.262Z,5.10
2019-02-15T02:19:09.167Z,5.00
2019-02-15T02:21:40.164Z,5.00
2019-02-15T02:24:11.060Z,4.90
2019-02-15T02:26:42.053Z,4.90
2019-02-15T02:29:14.003Z,4.90
2019-02-15T02:31:45.121Z,4.90
2019-02-15T02:34:16.236Z,4.80
2019-02-15T02:36:51.619Z,4.90
2019-02-15T02:39:22.694Z,4.90
2019-02-15T02:41:59.279Z,4.90
2019-02-15T02:44:30.353Z,4.90
2019-02-15T02:47:01.769Z,4.90
2019-02-15T02:49:32.793Z,4.80
2019-02-15T02:52:04.868Z,4.80
2019-02-15T02:54:35.896Z,4.80
2019-02-15T02:57:07.991Z,4.80
2019-02-15T02:59:38.977Z,4.80
2019-02-15T03:02:09.974Z,4.80
2019-02-15T03:04:41.049Z,4.80
2019-02-15T03:07:12.077Z,4.70
2019-02-15T03:09:44.822Z,4.70
2019-02-15T03:12:16.083Z,4.70
2019-02-15T03:14:47.346Z,4.80
2019-02-15T03:17:18.550Z,4.70
2019-02-15T03:19:49.468Z,4.70
2019-02-15T03:22:22.165Z,4.70
2019-02-15T03:24:53.065Z,4.70
2019-02-15T03:27:24.276Z,4.70
2019-02-15T03:29:56.435Z,4.70
2019-02-15T03:32:27.561Z,4.70
2019-02-15T03:34:58.551Z,4.70
2019-02-15T03:37:46.948Z,4.70
2019-02-15T03:40:21.947Z,4.70
2019-02-15T03:42:53.133Z,4.70
2019-02-15T03:45:24.017Z,4.70
2019-02-15T03:47:55.124Z,4.70
2019-02-15T03:50:26.080Z,4.80
2019-02-15T03:52:57.160Z,4.80
2019-02-15T03:55:28.173Z,4.80
2019-02-15T03:57:59.741Z,4.70
2019-02-15T04:00:31.380Z,4.80
2019-02-15T04:03:03.224Z,4.70
2019-02-15T04:05:34.849Z,4.70
2019-02-15T04:08:06.599Z,4.70
2019-02-15T04:10:37.721Z,4.70
2019-02-15T04:13:08.746Z,4.70
2019-02-15T04:15:39.872Z,4.70
2019-02-15T04:18:11.410Z,4.70
2019-02-15T04:20:43.037Z,4.80
2019-02-15T04:23:14.849Z,4.80
2019-02-15T04:25:45.839Z,4.70
2019-02-15T04:28:17.190Z,4.70
2019-02-15T04:30:54.420Z,4.70
2019-02-15T04:36:16.839Z,4.70
2019-02-15T04:38:47.671Z,4.70
2019-02-15T04:41:18.580Z,4.60
2019-02-15T04:43:49.445Z,4.70
2019-02-15T04:46:20.440Z,4.70
2019-02-15T04:48:51.366Z,4.70
2019-02-15T04:54:13.556Z,4.70
2019-02-15T04:56:46.759Z,4.70
2019-02-15T04:59:17.677Z,4.70
2019-02-15T05:01:48.456Z,4.70
2019-02-15T05:04:19.246Z,4.70
2019-02-15T05:06:59.708Z,4.80
2019-02-15T05:09:34.058Z,4.80
2019-02-15T05:12:05.437Z,4.80
2019-02-15T05:14:36.458Z,4.80
2019-02-15T05:17:07.546Z,4.80
2019-02-15T05:19:38.605Z,4.80
2019-02-15T05:22:09.806Z,4.80
2019-02-15T05:24:40.855Z,4.80
2019-02-15T05:27:11.975Z,4.80
2019-02-15T05:29:42.895Z,4.80
2019-02-15T05:32:13.996Z,4.90
2019-02-15T05:34:46.145Z,5.00
2019-02-15T05:37:17.338Z,4.90
2019-02-15T05:39:48.453Z,4.90
2019-02-15T05:42:19.398Z,4.90
2019-02-15T05:44:50.614Z,4.90
2019-02-15T05:47:21.579Z,5.00
2019-02-15T05:49:52.535Z,5.00
2019-02-15T05:52:23.565Z,5.00
2019-02-15T05:54:54.528Z,5.00
2019-02-15T05:57:25.485Z,5.00
2019-02-15T05:59:56.544Z,5.00
2019-02-15T06:02:27.519Z,5.10
2019-02-15T06:04:58.456Z,5.10
2019-02-15T06:07:29.390Z,5.10
2019-02-15T06:10:00.338Z,5.10
2019-02-15T06:12:31.386Z,5.10
2019-02-15T06:15:02.500Z,5.10
2019-02-15T06:17:33.620Z,5.10
2019-02-15T06:20:04.783Z,5.10
2019-02-15T06:22:35.980Z,5.10
2019-02-15T06:25:07.154Z,5.10
2019-02-15T06:27:38.243Z,5.10
2019-02-15T06:30:09.717Z,5.10
2019-02-15T06:32:40.740Z,5.10
2019-02-15T06:35:11.737Z,5.10
2019-02-15T06:37:42.811Z,5.10
2019-02-15T06:40:14.061Z,5.10
2019-02-15T06:42:45.089Z,5.10
2019-02-15T06:45:24.233Z,5.10
2019-02-15T06:47:48.866Z,5.10
2019-02-15T06:50:19.899Z,5.10
2019-02-15T06:52:50.970Z,5.10
2019-02-15T06:55:22.030Z,5.10
2019-02-15T06:57:53.202Z,5.10
2019-02-15T07:00:42.921Z,5.20
2019-02-15T07:03:24.380Z,5.10
2019-02-15T07:05:55.499Z,5.20
2019-02-15T07:08:26.549Z,5.20
2019-02-15T07:10:57.580Z,5.20
2019-02-15T07:13:28.709Z,5.20
2019-02-15T07:15:59.788Z,5.20
2019-02-15T07:18:30.844Z,5.20
2019-02-15T07:21:04.201Z,5.20
2019-02-15T07:23:35.906Z,5.20
2019-02-15T07:26:07.427Z,5.20
2019-02-15T07:28:38.473Z,5.30
2019-02-15T07:31:09.611Z,5.30
2019-02-15T07:33:41.139Z,5.30
2019-02-15T07:36:12.175Z,5.30
2019-02-15T07:38:43.728Z,5.30
2019-02-15T07:41:14.695Z,5.30
2019-02-15T07:43:45.706Z,5.30
2019-02-15T07:46:16.667Z,5.30
2019-02-15T07:48:47.649Z,5.30
2019-02-15T07:51:19.235Z,5.30
2019-02-15T07:53:50.872Z,5.30
2019-02-15T07:56:21.989Z,5.40
2019-02-15T07:58:53.838Z,5.40
2019-02-15T08:01:25.617Z,5.40
2019-02-15T08:03:58.439Z,5.40
2019-02-15T08:06:30.117Z,5.40
2019-02-15T08:09:01.815Z,5.40
2019-02-15T08:11:34.817Z,5.40
2019-02-15T08:14:14.649Z,5.40
2019-02-15T08:16:40.166Z,5.40
2019-02-15T08:19:12.570Z,5.40
2019-02-15T08:21:44.362Z,5.40
2019-02-15T08:24:16.092Z,5.50
2019-02-15T08:26:47.781Z,5.50
2019-02-15T08:29:19.120Z,5.50
2019-02-15T08:31:50.832Z,5.50
2019-02-15T08:34:22.615Z,5.60
2019-02-15T08:36:54.316Z,5.60
2019-02-15T08:39:26.003Z,5.60
2019-02-15T08:42:03.830Z,5.60
2019-02-15T08:44:30.949Z,5.60
2019-02-15T08:47:02.715Z,5.70
2019-02-15T08:49:34.461Z,5.70
2019-02-15T08:52:06.280Z,5.70
2019-02-15T08:54:37.877Z,5.70
2019-02-15T08:57:09.406Z,5.70
2019-02-15T08:59:41.092Z,5.70
2019-02-15T09:02:19.711Z,5.70
2019-02-15T09:04:51.227Z,5.70
2019-02-15T09:07:23.076Z,5.70
2019-02-15T09:09:55.117Z,5.70
2019-02-15T09:12:26.677Z,5.70
2019-02-15T09:14:58.497Z,5.70
2019-02-15T09:17:29.589Z,5.70
2019-02-15T09:20:01.527Z,5.80
2019-02-15T09:22:33.280Z,5.80
2019-02-15T09:25:05.343Z,5.80
2019-02-15T09:27:41.735Z,5.80
2019-02-15T09:30:15.082Z,5.80
2019-02-15T09:32:46.720Z,5.80
2019-02-15T09:35:18.481Z,5.90
2019-02-15T09:37:50.644Z,5.90
2019-02-15T09:40:21.827Z,5.90
2019-02-15T09:42:53.508Z,6.00
2019-02-15T09:45:25.280Z,6.00
2019-02-15T09:47:56.374Z,5.90
2019-02-15T09:50:27.953Z,6.00
2019-02-15T09:53:00.040Z,5.90
2019-02-15T09:55:32.965Z,5.90
2019-02-15T09:58:05.204Z,5.90
2019-02-15T10:00:36.910Z,6.00
2019-02-15T10:03:08.430Z,6.00
2019-02-15T10:05:40.585Z,6.10
2019-02-15T10:08:11.802Z,6.10
2019-02-15T10:10:43.934Z,6.10
2019-02-15T10:13:15.593Z,6.10
2019-02-15T10:15:47.247Z,6.10
2019-02-15T10:18:19.363Z,6.00
2019-02-15T10:20:51.145Z,6.00
2019-02-15T10:23:22.928Z,6.00
2019-02-15T10:25:54.733Z,6.00
2019-02-15T10:28:26.362Z,6.00
2019-02-15T10:30:58.029Z,6.10
2019-02-15T10:33:29.817Z,6.20
2019-02-15T10:36:01.090Z,6.30
2019-02-15T10:38:32.735Z,6.30
2019-02-15T10:41:04.600Z,6.30
2019-02-15T10:43:36.134Z,6.30
2019-02-15T10:46:07.818Z,6.30
2019-02-15T10:48:40.651Z,6.30
2019-02-15T10:51:12.698Z,6.40
2019-02-15T10:53:45.387Z,6.40
2019-02-15T10:56:16.459Z,6.30
2019-02-15T10:58:48.064Z,6.30
2019-02-15T11:01:19.868Z,6.20
2019-02-15T11:03:50.905Z,6.10
2019-02-15T11:06:22.527Z,6.10
2019-02-15T11:08:53.576Z,6.10
2019-02-15T11:11:25.282Z,6.10
2019-02-15T11:13:57.017Z,6.30
2019-02-15T11:16:29.296Z,6.30
2019-02-15T11:19:00.859Z,6.20
2019-02-15T11:21:31.976Z,6.20
2019-02-15T11:24:03.684Z,6.20
2019-02-15T11:26:35.479Z,6.10
2019-02-15T11:29:06.824Z,6.10
2019-02-15T11:31:38.686Z,6.10
2019-02-15T11:34:10.318Z,6.10
2019-02-15T11:36:42.590Z,6.00
2019-02-15T11:39:13.863Z,6.00
2019-02-15T11:41:45.686Z,6.00
2019-02-15T11:44:17.413Z,5.90
2019-02-15T11:46:56.570Z,5.90
2019-02-15T11:49:22.361Z,5.90
2019-02-15T11:51:54.125Z,5.90
2019-02-15T11:54:26.394Z,5.90
2019-02-15T11:56:58.389Z,5.90
2019-02-15T11:59:32.492Z,5.90
2019-02-15T12:02:06.316Z,5.90
2019-02-15T12:04:37.329Z,5.90
2019-02-15T12:07:09.210Z,5.90
2019-02-15T12:09:40.887Z,5.90
2019-02-15T12:12:12.665Z,5.80
2019-02-15T12:14:44.364Z,5.80
2019-02-15T12:17:16.314Z,5.80
2019-02-15T12:19:47.488Z,5.80
2019-02-15T12:22:18.599Z,5.80
2019-02-15T12:24:50.320Z,5.80
2019-02-15T12:27:22.517Z,5.90
2019-02-15T12:29:54.094Z,5.80
2019-02-15T12:32:25.978Z,5.80
2019-02-15T12:34:57.791Z,5.70
2019-02-15T12:37:29.468Z,5.80
2019-02-15T12:40:00.936Z,5.70
2019-02-15T12:42:33.236Z,5.70
2019-02-15T12:45:05.158Z,5.70
2019-02-15T12:47:36.476Z,5.70
2019-02-15T12:50:10.647Z,5.70
2019-02-15T12:52:42.425Z,5.70
2019-02-15T12:55:15.263Z,5.70
2019-02-15T12:57:47.080Z,5.80
2019-02-15T13:00:19.905Z,5.80
2019-02-15T13:02:52.319Z,5.80
2019-02-15T13:05:24.226Z,5.80
2019-02-15T13:07:56.180Z,5.80
2019-02-15T13:10:28.633Z,5.80
2019-02-15T13:13:00.221Z,5.70
2019-02-15T13:15:31.379Z,5.80
2019-02-15T13:18:03.088Z,5.80
2019-02-15T13:20:34.921Z,5.80
2019-02-15T13:23:06.840Z,5.90
2019-02-15T13:25:38.190Z,5.90
2019-02-15T13:28:09.849Z,5.90
2019-02-15T13:30:41.753Z,5.90
2019-02-15T13:33:13.495Z,5.90
2019-02-15T13:35:45.264Z,5.90
2019-02-15T13:38:16.897Z,5.90
2019-02-15T13:40:48.730Z,5.80
2019-02-15T13:43:19.837Z,5.70
2019-02-15T13:45:50.803Z,5.70
2019-02-15T13:48:21.807Z,5.80
2019-02-15T13:50:53.391Z,5.80
2019-02-15T13:53:25.229Z,5.70
2019-02-15T13:55:57.015Z,5.60
2019-02-15T13:58:29.038Z,5.50
2019-02-15T14:01:01.174Z,5.50
2019-02-15T14:03:34.178Z,5.60
2019-02-15T14:06:06.082Z,5.60
2019-02-15T14:08:38.006Z,5.60
2019-02-15T14:11:09.815Z,5.60
2019-02-15T14:13:41.562Z,5.60
2019-02-15T14:16:13.293Z,5.60
2019-02-15T14:18:44.472Z,5.60
2019-02-15T14:21:15.970Z,5.60
2019-02-15T14:23:47.635Z,5.60
2019-02-15T14:26:19.202Z,5.50
2019-02-15T14:28:50.885Z,5.50
2019-02-15T14:31:22.403Z,5.50
2019-02-15T14:33:54.154Z,5.50
2019-02-15T14:36:25.671Z,5.50
2019-02-15T14:38:57.281Z,5.50
2019-02-15T14:41:29.011Z,5.50
2019-02-15T14:44:00.101Z,5.50
2019-02-15T14:46:31.691Z,5.40
2019-02-15T14:49:02.964Z,5.40
2019-02-15T14:51:33.900Z,5.30
2019-02-15T14:54:05.025Z,5.30
2019-02-15T14:56:36.255Z,5.20
2019-02-15T14:59:07.312Z,5.30
2019-02-15T15:01:38.204Z,5.30
2019-02-15T15:04:09.463Z,5.30
2019-02-15T15:06:41.119Z,5.30
2019-02-15T15:09:12.989Z,5.30
2019-02-15T15:11:44.729Z,5.20
2019-02-15T15:14:16.547Z,5.20
2019-02-15T15:16:47.636Z,5.20
2019-02-15T15:19:19.170Z,5.20
2019-02-15T15:21:50.835Z,5.20
2019-02-15T15:24:22.705Z,5.10
2019-02-15T15:26:54.325Z,5.00
2019-02-15T15:29:25.377Z,4.90
2019-02-15T15:31:56.758Z,4.90
2019-02-15T15:34:27.900Z,5.00
2019-02-15T15:37:01.125Z,5.00
2019-02-15T15:39:33.967Z,5.00
2019-02-15T15:42:05.740Z,5.00
2019-02-15T15:44:37.694Z,5.00
2019-02-15T15:47:09.357Z,5.00
2019-02-15T15:49:40.430Z,5.00
2019-02-15T15:52:11.767Z,4.90
2019-02-15T15:54:43.239Z,4.90
2019-02-15T15:57:14.470Z,4.90
2019-02-15T15:59:45.978Z,4.80
2019-02-15T16:02:18.492Z,4.80
2019-02-15T16:04:50.424Z,4.70
2019-02-15T16:07:22.110Z,4.70
2019-02-15T16:09:54.070Z,4.70
2019-02-15T16:12:25.847Z,4.70
2019-02-15T16:14:57.514Z,4.70
2019-02-15T16:17:30.708Z,4.70
2019-02-15T16:20:02.695Z,4.80
2019-02-15T16:22:36.266Z,4.80
2019-02-15T16:25:12.773Z,4.80
2019-02-15T16:27:44.426Z,4.80
2019-02-15T16:30:16.493Z,4.70
2019-02-15T16:32:48.148Z,4.70
2019-02-15T16:35:20.242Z,4.70
2019-02-15T16:37:52.546Z,4.70
2019-02-15T16:40:24.353Z,4.60
2019-02-15T16:42:58.281Z,4.60
2019-02-15T16:45:29.446Z,4.60
2019-02-15T16:48:03.446Z,4.60
2019-02-15T16:50:35.345Z,4.60
2019-02-15T16:53:08.908Z,4.70
2019-02-15T16:55:40.154Z,4.70
2019-02-15T16:58:14.633Z,4.60
2019-02-15T17:00:46.568Z,4.70
2019-02-15T17:03:17.945Z,4.70
2019-02-15T17:05:49.705Z,4.70
2019-02-15T17:08:21.672Z,4.70
2019-02-15T17:10:53.642Z,4.70
2019-02-15T17:13:25.477Z,4.70
2019-02-15T17:16:00.832Z,4.70
2019-02-15T17:18:35.001Z,4.70
2019-02-15T17:21:06.478Z,4.60
2019-02-15T17:23:38.129Z,4.60
2019-02-15T17:26:09.999Z,4.60
2019-02-15T17:28:41.861Z,4.60
2019-02-15T17:31:13.317Z,4.60
2019-02-15T17:33:47.410Z,4.50
2019-02-15T17:36:20.963Z,4.50
2019-02-15T17:38:52.196Z,4.50
2019-02-15T17:41:23.630Z,4.50
2019-02-15T17:43:54.880Z,4.50
2019-02-15T17:46:25.967Z,4.50
2019-02-15T17:49:00.852Z,4.60
2019-02-15T17:51:30.461Z,4.60
2019-02-15T17:54:04.878Z,4.60
2019-02-15T17:56:37.402Z,4.50
2019-02-15T17:59:08.785Z,4.50
2019-02-15T18:01:39.927Z,4.50
2019-02-15T18:04:11.634Z,4.40
2019-02-15T18:06:43.481Z,4.30
2019-02-15T18:09:15.336Z,4.30
2019-02-15T18:11:46.677Z,4.20
2019-02-15T18:14:18.195Z,4.30
2019-02-15T18:16:50.053Z,4.20
2019-02-15T18:19:25.761Z,4.30
2019-02-15T18:21:57.012Z,4.30
2019-02-15T18:24:28.608Z,4.20
2019-02-15T18:26:59.895Z,4.20
2019-02-15T18:29:32.802Z,4.20
2019-02-15T18:32:04.736Z,4.10
2019-02-15T18:34:36.262Z,4.10
2019-02-15T18:37:07.355Z,4.10
2019-02-15T18:39:41.777Z,4.00
2019-02-15T18:42:13.069Z,4.00
2019-02-15T18:44:45.730Z,4.00
2019-02-15T18:47:18.252Z,4.10
2019-02-15T18:49:56.273Z,4.00
2019-02-15T18:52:28.066Z,4.00
2019-02-15T18:54:59.124Z,4.00
2019-02-15T18:57:33.722Z,4.10
2019-02-15T19:03:16.395Z,4.10
2019-02-15T19:05:47.762Z,4.10
2019-02-15T19:08:19.546Z,4.00
2019-02-15T19:10:54.203Z,4.00
2019-02-15T19:13:27.446Z,3.90
2019-02-15T19:16:07.846Z,3.90
2019-02-15T19:18:39.245Z,3.90
2019-02-15T19:21:10.917Z,3.80
2019-02-15T19:23:44.620Z,3.80
2019-02-15T19:26:17.402Z,3.80
2019-02-15T19:28:57.803Z,3.70
2019-02-15T19:31:52.706Z,3.70
2019-02-15T19:34:27.902Z,3.80
2019-02-15T19:36:59.619Z,3.80
2019-02-15T19:39:31.206Z,3.80
2019-02-15T19:42:08.578Z,3.80
2019-02-15T19:44:39.977Z,3.70
2019-02-15T19:47:12.780Z,3.70
2019-02-15T19:49:47.284Z,3.70
2019-02-15T19:52:18.382Z,3.70
2019-02-15T19:54:50.222Z,3.70
2019-02-15T19:57:21.352Z,3.70
2019-02-15T19:59:54.202Z,3.80
2019-02-15T20:02:25.904Z,3.80
2019-02-15T20:04:57.338Z,3.80
2019-02-15T20:07:32.985Z,3.80
2019-02-15T20:10:04.734Z,3.80
2019-02-15T20:12:36.569Z,3.80
2019-02-15T20:15:11.135Z,3.80
2019-02-15T20:17:43.096Z,3.80
2019-02-15T20:20:14.963Z,3.70
2019-02-15T20:22:46.691Z,3.70
2019-02-15T20:25:18.795Z,3.70
2019-02-15T20:27:51.626Z,3.70
2019-02-15T20:30:23.561Z,3.70
2019-02-15T20:32:55.114Z,3.70
2019-02-15T20:35:26.840Z,3.60
2019-02-15T20:37:58.700Z,3.60
2019-02-15T20:40:30.542Z,3.60
2019-02-15T20:43:02.288Z,3.60
2019-02-15T20:45:33.929Z,3.60
2019-02-15T20:48:11.197Z,3.60
2019-02-15T20:50:38.738Z,3.60
2019-02-15T20:53:09.796Z,3.60
2019-02-15T20:55:41.056Z,3.60
2019-02-15T20:58:12.211Z,3.50
2019-02-15T21:00:43.950Z,3.50
2019-02-15T21:03:15.636Z,3.50
2019-02-15T21:05:46.705Z,3.40
2019-02-15T21:08:17.748Z,3.50
2019-02-15T21:10:55.240Z,3.50
2019-02-15T21:13:21.572Z,3.50
2019-02-15T21:15:52.901Z,3.50
2019-02-15T21:18:23.866Z,3.50
2019-02-15T21:20:55.485Z,3.60
2019-02-15T21:23:27.372Z,3.60
2019-02-15T21:25:58.634Z,3.60
2019-02-15T21:28:29.622Z,3.60
2019-02-15T21:31:00.917Z,3.70
2019-02-15T21:33:32.104Z,3.70
2019-02-15T21:36:03.317Z,3.70
2019-02-15T21:38:34.736Z,3.70
2019-02-15T21:41:07.106Z,3.70
2019-02-15T21:43:38.211Z,3.70
2019-02-15T21:46:09.521Z,3.70
2019-02-15T21:48:40.622Z,3.70
2019-02-15T21:51:12.001Z,3.70
2019-02-15T21:53:43.176Z,3.80
2019-02-15T21:56:14.248Z,3.80
2019-02-15T21:58:45.347Z,3.80
2019-02-15T22:01:16.536Z,3.80
2019-02-15T22:03:47.965Z,3.80
2019-02-15T22:06:19.090Z,3.80
2019-02-15T22:08:50.369Z,3.80
2019-02-15T22:11:21.564Z,3.80
2019-02-15T22:13:52.508Z,3.90
2019-02-15T22:16:23.558Z,3.90
2019-02-15T22:18:54.563Z,3.90
2019-02-15T22:21:25.617Z,3.90
2019-02-15T22:23:57.382Z,3.90
2019-02-15T22:26:28.753Z,3.90
2019-02-15T22:28:59.866Z,3.90
2019-02-15T22:31:31.683Z,3.80
2019-02-15T22:34:02.867Z,3.90
2019-02-15T22:36:33.972Z,3.80
2019-02-15T22:39:05.904Z,3.90
2019-02-15T22:41:37.903Z,3.80
2019-02-15T22:44:08.804Z,3.90
2019-02-15T22:46:39.754Z,3.90
2019-02-15T22:49:13.797Z,3.90
2019-02-15T22:51:44.782Z,3.90
2019-02-15T22:54:15.698Z,3.90
2019-02-15T22:56:46.714Z,4.00
2019-02-15T22:59:20.998Z,4.00
2019-02-15T23:01:53.512Z,4.00
2019-02-15T23:04:24.931Z,3.90
2019-02-15T23:06:56.058Z,3.90
2019-02-15T23:09:27.021Z,3.90
2019-02-15T23:11:58.218Z,3.90
2019-02-15T23:14:29.443Z,3.80
2019-02-15T23:17:03.433Z,3.90
2019-02-15T23:19:34.533Z,3.80
2019-02-15T23:22:06.231Z,3.80
2019-02-15T23:24:40.202Z,3.80
2019-02-15T23:27:13.404Z,3.80
2019-02-15T23:29:44.441Z,3.90
2019-02-15T23:32:15.459Z,3.80
2019-02-15T23:34:46.608Z,3.90
2019-02-15T23:37:17.736Z,3.80
2019-02-15T23:39:48.767Z,3.90
2019-02-15T23:42:20.489Z,3.90
2019-02-15T23:44:52.281Z,3.90
2019-02-15T23:47:23.619Z,3.90
2019-02-15T23:49:55.704Z,3.90
2019-02-15T23:52:27.407Z,3.90
2019-02-15T23:54:58.587Z,3.80
2019-02-15T23:57:29.602Z,3.80
